Terminal Aerodrome Forecast
Issued by NWS

Home | Current Version | Previous Version | Text Only | Print | Product List | Glossary On
Versions: 1 2 3 4 5 6 7 8 9 10 11 12 13 14 15 16 17 18 19 20 21
000
FTUS43 KDLH 231200 AAA
TAFHYR
TAF AMD
KHYR 231231Z 2313/2412 VRB02KT P6SM SCT060
     FM231600 33005KT P6SM SCT035
      TEMPO 2318/2322 BKN045
     FM240000 VRB02KT P6SM SCT050
     FM240900 00000KT 2SM BR SCT003=

USA.gov is the U.S. government's official web portal to all federal, state and local government web resources and services.